Time;durP1;ratioP1;P1;durP2;ratioP2;P2;SDS_P1;SDS_P2;PMS_P1;PMS_P2;Temp;Humidity;BMP_temperature;BMP_pressure;BME280_temperature;BME280_humidity;BME280_pressure;Samples;Min_cycle;Max_cycle;Signal;HPM_P1;HPM_P2
2024/02/22 00:00:01;;;;;;;1.50;1.50;;;;;;;;;;5014345;28;20483;-82
2024/02/22 00:02:29;;;;;;;1.27;1.27;;;;;;;;;;5025551;28;20531;-82
2024/02/22 00:04:55;;;;;;;1.50;1.50;;;;;;;;;;5010119;28;21090;-83
2024/02/22 00:07:22;;;;;;;1.43;1.43;;;;;;;;;;5018349;28;20455;-83
2024/02/22 00:09:50;;;;;;;1.10;1.10;;;;;;;;;;5023865;28;20463;-83
2024/02/22 00:12:16;;;;;;;1.20;1.20;;;;;;;;;;5025301;28;20459;-83
2024/02/22 00:14:42;;;;;;;1.40;1.40;;;;;;;;;;5022632;28;20490;-83
2024/02/22 00:17:09;;;;;;;1.33;1.33;;;;;;;;;;5024385;28;20576;-83
2024/02/22 00:19:35;;;;;;;1.33;1.33;;;;;;;;;;5026626;28;20517;-83
2024/02/22 00:22:01;;;;;;;1.10;1.10;;;;;;;;;;5030793;28;20486;-82
2024/02/22 00:24:28;;;;;;;1.20;1.20;;;;;;;;;;5022285;28;20435;-82
2024/02/22 00:26:56;;;;;;;1.30;1.30;;;;;;;;;;5029498;28;20469;-83
2024/02/22 00:29:22;;;;;;;1.10;1.10;;;;;;;;;;5023175;28;20477;-82
2024/02/22 00:31:48;;;;;;;1.10;1.10;;;;;;;;;;5022490;28;20494;-85
2024/02/22 00:34:15;;;;;;;1.23;1.23;;;;;;;;;;5028692;28;20888;-82
2024/02/22 00:36:42;;;;;;;1.00;1.00;;;;;;;;;;5022091;28;20558;-82
2024/02/22 00:39:09;;;;;;;1.23;1.23;;;;;;;;;;5016054;28;20479;-82
2024/02/22 00:41:35;;;;;;;1.10;1.10;;;;;;;;;;5020445;28;20454;-82
2024/02/22 00:44:05;;;;;;;1.00;1.00;;;;;;;;;;5021108;28;20854;-83
2024/02/22 00:46:31;;;;;;;1.30;1.30;;;;;;;;;;5020400;28;20528;-83
2024/02/22 00:48:57;;;;;;;1.37;1.37;;;;;;;;;;5020594;28;20463;-83
2024/02/22 00:51:24;;;;;;;1.10;1.10;;;;;;;;;;5017120;28;20475;-83
2024/02/22 00:53:50;;;;;;;1.10;1.10;;;;;;;;;;5021102;28;20523;-83
2024/02/22 00:56:16;;;;;;;0.90;0.90;;;;;;;;;;5020468;28;20491;-83
2024/02/22 00:58:43;;;;;;;1.20;1.20;;;;;;;;;;5018977;28;20573;-85
2024/02/22 01:01:11;;;;;;;1.10;1.10;;;;;;;;;;5019461;28;20455;-84
2024/02/22 01:03:38;;;;;;;1.10;1.10;;;;;;;;;;5005777;28;20976;-83
2024/02/22 01:06:04;;;;;;;1.10;1.10;;;;;;;;;;5016873;28;20514;-86
2024/02/22 01:08:31;;;;;;;1.20;1.20;;;;;;;;;;5017201;28;20534;-85
2024/02/22 01:10:57;;;;;;;1.00;1.00;;;;;;;;;;5017667;28;20496;-84
2024/02/22 01:13:24;;;;;;;1.10;1.10;;;;;;;;;;5023701;28;21320;-85
2024/02/22 01:15:50;;;;;;;1.30;1.30;;;;;;;;;;5020676;28;20841;-84
2024/02/22 01:18:18;;;;;;;1.10;1.10;;;;;;;;;;5027004;28;20490;-84
2024/02/22 01:20:44;;;;;;;1.00;1.00;;;;;;;;;;5018162;28;20513;-84
2024/02/22 01:23:11;;;;;;;1.30;1.30;;;;;;;;;;5026765;28;20485;-84
2024/02/22 01:25:37;;;;;;;1.00;1.00;;;;;;;;;;5028745;28;20494;-84
2024/02/22 01:28:04;;;;;;;1.00;1.00;;;;;;;;;;5020530;28;20450;-84
2024/02/22 01:30:30;;;;;;;1.20;1.20;;;;;;;;;;5026557;28;20543;-85
2024/02/22 01:32:56;;;;;;;1.03;1.03;;;;;;;;;;5028581;28;20454;-84
2024/02/22 01:35:24;;;;;;;1.00;1.00;;;;;;;;;;5024639;28;20482;-83
2024/02/22 01:37:51;;;;;;;1.00;1.00;;;;;;;;;;5021711;28;21022;-84
2024/02/22 01:40:17;;;;;;;1.30;1.30;;;;;;;;;;5021963;28;20526;-84
2024/02/22 01:42:43;;;;;;;1.17;1.17;;;;;;;;;;5021198;28;20527;-84
2024/02/22 01:45:09;;;;;;;1.17;1.17;;;;;;;;;;5018229;28;20471;-84
2024/02/22 01:47:36;;;;;;;1.10;1.10;;;;;;;;;;5023346;28;20491;-85
2024/02/22 01:50:03;;;;;;;1.20;1.20;;;;;;;;;;5024388;28;20284;-85
2024/02/22 01:52:32;;;;;;;1.30;1.30;;;;;;;;;;5023086;28;20485;-85
2024/02/22 01:54:58;;;;;;;1.20;1.20;;;;;;;;;;5013197;28;20565;-84
2024/02/22 01:57:24;;;;;;;1.33;1.33;;;;;;;;;;5020039;28;21001;-84
2024/02/22 01:59:51;;;;;;;1.00;1.00;;;;;;;;;;5025278;28;20450;-84
2024/02/22 02:02:17;;;;;;;1.20;1.20;;;;;;;;;;5023841;28;20493;-84
2024/02/22 02:04:44;;;;;;;0.90;0.90;;;;;;;;;;5024197;28;20482;-84
2024/02/22 02:07:10;;;;;;;0.90;0.90;;;;;;;;;;5027340;28;20461;-85
2024/02/22 02:09:38;;;;;;;0.90;0.90;;;;;;;;;;5020619;28;20478;-85
2024/02/22 02:12:05;;;;;;;1.30;1.30;;;;;;;;;;5023644;28;21025;-85
2024/02/22 02:14:31;;;;;;;1.23;1.23;;;;;;;;;;5020435;28;20526;-84
2024/02/22 02:16:57;;;;;;;1.00;1.00;;;;;;;;;;5021051;28;20558;-85
2024/02/22 02:19:26;;;;;;;0.80;0.80;;;;;;;;;;5025670;28;20505;-88
2024/02/22 02:21:59;;;;;;;0.83;0.83;;;;;;;;;;5025908;28;20466;-85
2024/02/22 02:24:30;;;;;;;0.80;0.80;;;;;;;;;;5019238;28;20454;-84
2024/02/22 02:26:59;;;;;;;0.83;0.83;;;;;;;;;;5023981;28;20454;-85
2024/02/22 02:29:25;;;;;;;0.90;0.90;;;;;;;;;;5025604;28;20526;-85
2024/02/22 02:31:52;;;;;;;0.80;0.80;;;;;;;;;;5011915;28;20489;-85
2024/02/22 02:34:18;;;;;;;0.80;0.80;;;;;;;;;;5019766;28;21089;-85
2024/02/22 02:36:45;;;;;;;0.93;0.93;;;;;;;;;;5019177;28;20543;-84
2024/02/22 02:39:11;;;;;;;1.00;1.00;;;;;;;;;;5019248;28;20569;-83
2024/02/22 02:41:37;;;;;;;1.00;1.00;;;;;;;;;;5017030;28;20530;-84
2024/02/22 02:44:05;;;;;;;0.90;0.90;;;;;;;;;;5019337;28;20549;-84
2024/02/22 02:46:32;;;;;;;1.00;1.00;;;;;;;;;;5018893;28;20497;-85
2024/02/22 02:48:58;;;;;;;0.90;0.90;;;;;;;;;;5014362;28;20466;-85
2024/02/22 02:51:24;;;;;;;0.80;0.80;;;;;;;;;;5019780;28;20477;-84
2024/02/22 02:53:51;;;;;;;0.93;0.93;;;;;;;;;;5016268;28;20568;-84
2024/02/22 02:56:17;;;;;;;0.90;0.90;;;;;;;;;;5015281;28;20538;-84
2024/02/22 02:58:43;;;;;;;0.80;0.80;;;;;;;;;;5012285;28;20519;-83
2024/02/22 03:01:11;;;;;;;0.80;0.80;;;;;;;;;;5010839;28;20904;-85
2024/02/22 03:03:37;;;;;;;0.87;0.87;;;;;;;;;;5014483;28;20526;-85
2024/02/22 03:06:04;;;;;;;0.80;0.80;;;;;;;;;;5009536;28;21168;-87
2024/02/22 03:08:30;;;;;;;0.70;0.70;;;;;;;;;;5021427;28;20443;-84
2024/02/22 03:10:57;;;;;;;0.90;0.90;;;;;;;;;;5022413;28;20463;-86
2024/02/22 03:13:23;;;;;;;0.70;0.70;;;;;;;;;;5018520;28;20539;-85
2024/02/22 03:15:51;;;;;;;0.60;0.60;;;;;;;;;;5016500;28;20529;-86
2024/02/22 03:18:19;;;;;;;0.70;0.70;;;;;;;;;;5022576;28;20492;-85
2024/02/22 03:20:45;;;;;;;1.03;1.03;;;;;;;;;;5022197;28;20534;-84
2024/02/22 03:23:12;;;;;;;0.70;0.70;;;;;;;;;;5022903;28;20447;-85
2024/02/22 03:25:38;;;;;;;0.80;0.80;;;;;;;;;;5026797;28;20462;-84
2024/02/22 03:28:06;;;;;;;0.67;0.67;;;;;;;;;;5021541;28;21014;-85
2024/02/22 03:30:33;;;;;;;0.60;0.60;;;;;;;;;;5024244;28;20458;-85
2024/02/22 03:33:01;;;;;;;0.70;0.70;;;;;;;;;;5021565;28;20466;-83
2024/02/22 03:35:29;;;;;;;0.70;0.70;;;;;;;;;;5020054;28;20486;-84
2024/02/22 03:37:56;;;;;;;0.80;0.80;;;;;;;;;;5022134;28;20481;-85
2024/02/22 03:40:22;;;;;;;0.80;0.80;;;;;;;;;;5020735;28;20443;-85
2024/02/22 03:42:49;;;;;;;0.80;0.80;;;;;;;;;;5021135;28;20482;-85
2024/02/22 03:45:15;;;;;;;0.80;0.80;;;;;;;;;;5022432;28;20490;-84
2024/02/22 03:47:41;;;;;;;0.70;0.70;;;;;;;;;;5018351;28;20455;-85
2024/02/22 03:50:08;;;;;;;0.70;0.70;;;;;;;;;;5018524;28;20513;-85
2024/02/22 03:52:36;;;;;;;0.80;0.80;;;;;;;;;;5018650;28;21258;-85
2024/02/22 03:55:02;;;;;;;0.70;0.70;;;;;;;;;;5015848;28;20485;-86
2024/02/22 03:57:29;;;;;;;0.70;0.70;;;;;;;;;;5021110;28;20501;-85
2024/02/22 03:59:55;;;;;;;0.60;0.60;;;;;;;;;;5020750;28;21015;-86
2024/02/22 04:02:22;;;;;;;1.53;1.47;;;;;;;;;;5016589;28;20565;-86
2024/02/22 04:04:51;;;;;;;0.70;0.70;;;;;;;;;;5010709;28;20995;-85
2024/02/22 04:07:17;;;;;;;0.70;0.70;;;;;;;;;;5020122;28;20519;-85
2024/02/22 04:09:45;;;;;;;2.27;2.17;;;;;;;;;;5018541;28;20546;-85
2024/02/22 04:12:12;;;;;;;0.80;0.80;;;;;;;;;;5013031;28;20510;-85
2024/02/22 04:14:38;;;;;;;0.70;0.70;;;;;;;;;;5020103;28;20838;-85
2024/02/22 04:17:04;;;;;;;0.70;0.70;;;;;;;;;;5018971;28;20514;-85
2024/02/22 04:19:31;;;;;;;0.70;0.70;;;;;;;;;;5021723;28;20510;-85
2024/02/22 04:21:57;;;;;;;0.60;0.60;;;;;;;;;;5016322;28;20963;-85
2024/02/22 04:24:24;;;;;;;0.70;0.70;;;;;;;;;;5021572;28;20478;-84
2024/02/22 04:26:52;;;;;;;0.60;0.60;;;;;;;;;;5020242;28;20851;-84
2024/02/22 04:29:18;;;;;;;1.00;1.00;;;;;;;;;;5020947;28;20527;-85
2024/02/22 04:31:45;;;;;;;0.60;0.60;;;;;;;;;;5016803;28;20471;-85
2024/02/22 04:34:11;;;;;;;0.67;0.67;;;;;;;;;;5014529;28;20479;-86
2024/02/22 04:36:38;;;;;;;0.80;0.80;;;;;;;;;;5019635;28;20484;-86
2024/02/22 04:39:06;;;;;;;0.70;0.70;;;;;;;;;;5020228;28;21035;-85
2024/02/22 04:41:32;;;;;;;0.60;0.60;;;;;;;;;;5015023;28;21059;-85
2024/02/22 04:44:00;;;;;;;0.80;0.80;;;;;;;;;;5016791;28;20467;-86
2024/02/22 04:46:27;;;;;;;0.80;0.80;;;;;;;;;;5014081;28;20896;-86
2024/02/22 04:48:53;;;;;;;0.63;0.63;;;;;;;;;;5010733;28;20452;-85
2024/02/22 04:51:19;;;;;;;0.70;0.70;;;;;;;;;;5023600;28;20469;-83
2024/02/22 04:53:46;;;;;;;0.77;0.77;;;;;;;;;;5025165;28;20483;-85
2024/02/22 04:56:13;;;;;;;0.60;0.60;;;;;;;;;;5021095;28;20445;-83
2024/02/22 04:58:39;;;;;;;0.63;0.63;;;;;;;;;;5026881;28;20474;-84
2024/02/22 05:01:07;;;;;;;0.80;0.80;;;;;;;;;;5025856;28;20498;-84
2024/02/22 05:03:33;;;;;;;0.70;0.70;;;;;;;;;;5020914;28;20458;-82
2024/02/22 05:06:00;;;;;;;0.67;0.67;;;;;;;;;;5022848;28;20479;-84
2024/02/22 05:08:26;;;;;;;0.80;0.80;;;;;;;;;;5017360;28;20531;-84
2024/02/22 05:10:53;;;;;;;0.80;0.80;;;;;;;;;;5023091;28;20490;-85
2024/02/22 05:13:20;;;;;;;0.70;0.70;;;;;;;;;;5020075;28;20463;-83
2024/02/22 05:15:46;;;;;;;0.80;0.80;;;;;;;;;;5022924;28;20473;-84
2024/02/22 05:18:14;;;;;;;0.70;0.70;;;;;;;;;;5018237;28;20501;-85
2024/02/22 05:20:41;;;;;;;1.00;1.00;;;;;;;;;;5019741;28;20558;-85
2024/02/22 05:23:07;;;;;;;0.90;0.90;;;;;;;;;;5019937;28;20451;-83
2024/02/22 05:25:34;;;;;;;0.87;0.87;;;;;;;;;;5015939;28;20522;-83
2024/02/22 05:28:00;;;;;;;0.70;0.70;;;;;;;;;;5018145;28;20470;-85
2024/02/22 05:30:26;;;;;;;1.00;1.00;;;;;;;;;;5022293;28;20465;-85
2024/02/22 05:32:53;;;;;;;1.67;1.67;;;;;;;;;;5016859;28;20530;-84
2024/02/22 05:35:21;;;;;;;0.93;0.93;;;;;;;;;;5025268;28;20518;-83
2024/02/22 05:37:48;;;;;;;0.80;0.80;;;;;;;;;;5025168;28;20446;-82
2024/02/22 05:40:14;;;;;;;0.73;0.73;;;;;;;;;;5017903;28;20546;-83
2024/02/22 05:42:40;;;;;;;0.93;0.93;;;;;;;;;;5029293;28;20528;-83
2024/02/22 05:45:07;;;;;;;0.80;0.80;;;;;;;;;;5023069;28;20474;-84
2024/02/22 05:47:34;;;;;;;0.70;0.70;;;;;;;;;;5019715;28;20514;-83
2024/02/22 05:50:00;;;;;;;0.60;0.60;;;;;;;;;;5023011;28;20497;-83
2024/02/22 05:52:29;;;;;;;0.90;0.90;;;;;;;;;;5018884;28;21015;-82
2024/02/22 05:54:55;;;;;;;0.90;0.90;;;;;;;;;;5017331;28;20514;-82
2024/02/22 05:57:21;;;;;;;0.80;0.80;;;;;;;;;;5018173;28;21346;-83
2024/02/22 05:59:48;;;;;;;0.80;0.80;;;;;;;;;;5005894;28;20559;-81
2024/02/22 06:02:14;;;;;;;0.80;0.80;;;;;;;;;;5019631;28;20530;-78
2024/02/22 06:04:41;;;;;;;0.90;0.90;;;;;;;;;;5020787;28;20501;-78
2024/02/22 06:07:07;;;;;;;0.80;0.80;;;;;;;;;;5018875;28;20510;-78
2024/02/22 06:09:35;;;;;;;1.30;1.30;;;;;;;;;;5033303;28;20473;-79
2024/02/22 06:12:01;;;;;;;0.87;0.87;;;;;;;;;;5027632;28;20979;-78
2024/02/22 06:14:28;;;;;;;0.80;0.80;;;;;;;;;;5016619;28;20523;-79
2024/02/22 06:16:56;;;;;;;1.00;1.00;;;;;;;;;;5023852;28;20907;-80
2024/02/22 06:19:22;;;;;;;0.97;0.97;;;;;;;;;;5011742;28;20510;-79
2024/02/22 06:21:49;;;;;;;0.80;0.80;;;;;;;;;;5028101;28;20486;-80
2024/02/22 06:24:15;;;;;;;1.00;1.00;;;;;;;;;;5024063;28;20956;-80
2024/02/22 06:26:43;;;;;;;0.80;0.80;;;;;;;;;;5027295;28;20486;-79
2024/02/22 06:29:09;;;;;;;1.60;1.57;;;;;;;;;;5015292;28;20515;-80
2024/02/22 06:31:35;;;;;;;0.90;0.90;;;;;;;;;;5019548;28;20882;-80
2024/02/22 06:34:02;;;;;;;2.23;2.03;;;;;;;;;;5018197;28;20523;-78
2024/02/22 06:36:28;;;;;;;0.80;0.80;;;;;;;;;;5013213;28;20513;-80
2024/02/22 06:38:55;;;;;;;0.90;0.90;;;;;;;;;;5010588;28;21110;-79
2024/02/22 06:41:21;;;;;;;0.70;0.70;;;;;;;;;;5017516;28;20453;-79
2024/02/22 06:43:50;;;;;;;0.80;0.80;;;;;;;;;;5019349;28;20491;-77
2024/02/22 06:46:17;;;;;;;0.80;0.80;;;;;;;;;;5019932;28;20485;-80
2024/02/22 06:48:45;;;;;;;1.00;1.00;;;;;;;;;;5020174;28;20454;-79
2024/02/22 06:51:12;;;;;;;0.83;0.83;;;;;;;;;;5019495;28;20886;-80
2024/02/22 06:53:38;;;;;;;0.80;0.80;;;;;;;;;;5014164;28;20467;-80
2024/02/22 06:56:05;;;;;;;0.70;0.70;;;;;;;;;;5021039;28;20502;-78
2024/02/22 06:58:32;;;;;;;1.20;1.20;;;;;;;;;;5017829;28;20530;-80
2024/02/22 07:01:00;;;;;;;0.80;0.80;;;;;;;;;;5022284;28;20509;-80
2024/02/22 07:03:26;;;;;;;0.70;0.70;;;;;;;;;;5022602;28;20481;-79
2024/02/22 07:05:52;;;;;;;0.63;0.63;;;;;;;;;;5022580;28;20509;-82
2024/02/22 07:08:19;;;;;;;0.80;0.80;;;;;;;;;;5022005;28;21214;-82
2024/02/22 07:10:45;;;;;;;0.80;0.80;;;;;;;;;;5022726;28;20502;-81
2024/02/22 07:13:12;;;;;;;0.73;0.73;;;;;;;;;;5021488;28;20541;-82
2024/02/22 07:15:38;;;;;;;0.70;0.70;;;;;;;;;;5017014;28;20479;-82
2024/02/22 07:18:07;;;;;;;0.80;0.80;;;;;;;;;;5017869;28;20994;-82
2024/02/22 07:20:33;;;;;;;0.83;0.83;;;;;;;;;;5022201;28;20475;-85
2024/02/22 07:23:00;;;;;;;0.90;0.90;;;;;;;;;;5022582;28;20498;-85
2024/02/22 07:25:27;;;;;;;0.80;0.80;;;;;;;;;;5015284;28;20478;-86
2024/02/22 07:27:53;;;;;;;1.20;1.20;;;;;;;;;;5019936;28;20549;-86
2024/02/22 07:30:20;;;;;;;0.90;0.90;;;;;;;;;;5020974;28;21024;-86
2024/02/22 07:32:46;;;;;;;0.80;0.80;;;;;;;;;;5015319;28;20465;-86
2024/02/22 07:35:14;;;;;;;0.80;0.80;;;;;;;;;;5018090;28;20518;-86
2024/02/22 07:37:41;;;;;;;1.00;1.00;;;;;;;;;;5018219;28;20473;-86
2024/02/22 07:40:08;;;;;;;0.77;0.77;;;;;;;;;;5014501;28;20482;-86
2024/02/22 07:42:35;;;;;;;1.00;1.00;;;;;;;;;;5021865;28;20470;-87
2024/02/22 07:45:02;;;;;;;0.73;0.73;;;;;;;;;;5023511;28;20508;-82
2024/02/22 07:47:28;;;;;;;0.80;0.80;;;;;;;;;;5021554;28;20458;-81
2024/02/22 07:49:54;;;;;;;0.80;0.80;;;;;;;;;;5017729;28;20453;-82
2024/02/22 07:52:23;;;;;;;0.80;0.80;;;;;;;;;;5019957;28;21006;-81
2024/02/22 07:54:49;;;;;;;0.80;0.80;;;;;;;;;;5021518;28;20517;-82
2024/02/22 07:57:15;;;;;;;0.70;0.70;;;;;;;;;;5020032;28;21030;-80
2024/02/22 07:59:42;;;;;;;0.90;0.90;;;;;;;;;;5016114;28;20475;-81
2024/02/22 08:02:09;;;;;;;0.83;0.83;;;;;;;;;;5022483;28;20516;-82
2024/02/22 08:04:36;;;;;;;0.80;0.80;;;;;;;;;;5023853;28;21028;-82
2024/02/22 08:07:02;;;;;;;0.90;0.90;;;;;;;;;;5021221;28;20478;-82
2024/02/22 08:09:30;;;;;;;0.90;0.90;;;;;;;;;;5016942;28;20485;-83
2024/02/22 08:11:57;;;;;;;0.80;0.80;;;;;;;;;;5022015;28;20871;-79
2024/02/22 08:14:23;;;;;;;0.90;0.90;;;;;;;;;;5022350;28;20536;-80
2024/02/22 08:16:49;;;;;;;0.80;0.80;;;;;;;;;;5021542;28;20546;-79
2024/02/22 08:19:16;;;;;;;0.80;0.80;;;;;;;;;;5022258;28;20631;-80
2024/02/22 08:21:42;;;;;;;0.70;0.70;;;;;;;;;;5016012;28;20553;-80
2024/02/22 08:24:08;;;;;;;1.73;1.70;;;;;;;;;;5020968;28;20522;-79
2024/02/22 08:26:37;;;;;;;0.80;0.80;;;;;;;;;;5020982;28;20486;-79
2024/02/22 08:29:04;;;;;;;1.00;1.00;;;;;;;;;;5017134;28;20459;-80
2024/02/22 08:31:30;;;;;;;1.10;1.10;;;;;;;;;;5020639;28;20457;-80
2024/02/22 08:33:56;;;;;;;0.93;0.93;;;;;;;;;;5021454;28;20497;-79
2024/02/22 08:36:23;;;;;;;1.10;1.10;;;;;;;;;;5015877;28;20533;-79
2024/02/22 08:38:49;;;;;;;1.40;1.40;;;;;;;;;;5022561;28;21069;-78
2024/02/22 08:41:17;;;;;;;1.00;1.00;;;;;;;;;;5019338;28;20525;-80
2024/02/22 08:43:44;;;;;;;1.20;1.20;;;;;;;;;;5018572;28;20530;-80
2024/02/22 08:46:12;;;;;;;1.47;1.47;;;;;;;;;;5020007;28;20714;-80
2024/02/22 08:48:38;;;;;;;1.30;1.30;;;;;;;;;;5019230;28;21035;-82
2024/02/22 08:51:05;;;;;;;2.03;1.93;;;;;;;;;;5019951;28;20451;-81
2024/02/22 08:53:31;;;;;;;0.93;0.93;;;;;;;;;;5015968;28;20537;-80
2024/02/22 08:55:58;;;;;;;0.90;0.90;;;;;;;;;;5018885;28;20500;-81
2024/02/22 08:58:25;;;;;;;0.90;0.90;;;;;;;;;;5009087;28;20470;-79
2024/02/22 09:00:52;;;;;;;1.10;1.10;;;;;;;;;;5014778;28;20555;-79
2024/02/22 09:03:19;;;;;;;1.33;1.33;;;;;;;;;;5022030;28;20478;-80
2024/02/22 09:05:45;;;;;;;1.30;1.30;;;;;;;;;;5031151;28;20529;-80
2024/02/22 09:08:12;;;;;;;1.50;1.50;;;;;;;;;;5021226;28;20505;-80
2024/02/22 09:10:38;;;;;;;1.40;1.40;;;;;;;;;;5022017;28;20438;-79
2024/02/22 09:13:05;;;;;;;1.17;1.17;;;;;;;;;;5009857;28;20459;-79
2024/02/22 09:15:31;;;;;;;1.10;1.10;;;;;;;;;;5015819;28;20495;-79
2024/02/22 09:17:59;;;;;;;1.37;1.37;;;;;;;;;;5018458;28;20491;-80
2024/02/22 09:20:28;;;;;;;1.20;1.20;;;;;;;;;;5021571;28;20478;-80
2024/02/22 09:22:54;;;;;;;1.10;1.10;;;;;;;;;;5021585;28;20462;-79
2024/02/22 09:25:21;;;;;;;1.30;1.30;;;;;;;;;;5016421;28;20487;-81
2024/02/22 09:27:47;;;;;;;1.20;1.20;;;;;;;;;;5021333;28;20501;-81
2024/02/22 09:30:14;;;;;;;1.30;1.30;;;;;;;;;;5015967;28;20483;-81
2024/02/22 09:32:40;;;;;;;1.40;1.40;;;;;;;;;;5011121;28;20535;-81
2024/02/22 09:35:09;;;;;;;1.60;1.60;;;;;;;;;;5021169;28;20482;-80
2024/02/22 09:37:35;;;;;;;1.70;1.70;;;;;;;;;;5018458;28;20510;-79
2024/02/22 09:40:01;;;;;;;2.10;2.07;;;;;;;;;;5021856;28;20466;-81
2024/02/22 09:42:28;;;;;;;1.73;1.73;;;;;;;;;;5012661;28;20482;-82
2024/02/22 09:44:55;;;;;;;1.80;1.80;;;;;;;;;;5021472;28;20517;-80
2024/02/22 09:47:21;;;;;;;2.30;2.20;;;;;;;;;;5014181;28;20454;-81
2024/02/22 09:49:48;;;;;;;1.90;1.90;;;;;;;;;;5020831;28;20482;-81
2024/02/22 09:52:16;;;;;;;2.43;2.33;;;;;;;;;;5021482;28;20589;-81
2024/02/22 09:54:44;;;;;;;2.30;2.20;;;;;;;;;;5021501;28;20494;-83
2024/02/22 09:57:10;;;;;;;2.47;2.37;;;;;;;;;;5010544;28;20462;-81
2024/02/22 09:59:37;;;;;;;2.30;2.20;;;;;;;;;;5021255;28;20470;-81
2024/02/22 10:02:05;;;;;;;2.23;2.13;;;;;;;;;;5021670;28;20524;-81
2024/02/22 10:04:32;;;;;;;2.97;2.87;;;;;;;;;;5021716;28;20450;-81
2024/02/22 10:07:00;;;;;;;2.53;2.43;;;;;;;;;;5015330;28;20487;-81
2024/02/22 10:09:28;;;;;;;3.07;2.97;;;;;;;;;;5015973;28;20482;-79
2024/02/22 10:11:54;;;;;;;2.73;2.63;;;;;;;;;;5015014;28;20447;-77
2024/02/22 10:14:20;;;;;;;2.83;2.73;;;;;;;;;;5021676;28;20498;-80
2024/02/22 10:16:47;;;;;;;2.80;2.70;;;;;;;;;;5024755;28;21039;-81
2024/02/22 10:19:14;;;;;;;2.53;2.43;;;;;;;;;;5024941;28;20478;-82
2024/02/22 10:21:41;;;;;;;3.00;2.90;;;;;;;;;;5018297;28;20976;-82
2024/02/22 10:24:08;;;;;;;2.37;2.27;;;;;;;;;;5018473;28;20482;-80
2024/02/22 10:26:36;;;;;;;2.60;2.50;;;;;;;;;;5024112;28;20459;-79
2024/02/22 10:29:06;;;;;;;2.27;2.17;;;;;;;;;;5024732;28;20461;-81
2024/02/22 10:31:33;;;;;;;2.50;2.40;;;;;;;;;;5025319;28;20443;-80
2024/02/22 10:34:02;;;;;;;3.47;3.37;;;;;;;;;;5021535;28;20540;-81
2024/02/22 10:36:29;;;;;;;3.53;3.43;;;;;;;;;;5022702;28;20489;-80
2024/02/22 10:38:56;;;;;;;3.50;3.40;;;;;;;;;;5012416;28;20487;-80
2024/02/22 10:41:23;;;;;;;3.40;3.30;;;;;;;;;;5012529;28;20987;-80
2024/02/22 10:43:51;;;;;;;3.90;3.80;;;;;;;;;;5022003;28;20466;-80
2024/02/22 10:46:18;;;;;;;4.70;4.60;;;;;;;;;;5022862;28;20677;-80
2024/02/22 10:48:45;;;;;;;4.33;4.23;;;;;;;;;;5020888;28;20522;-80
2024/02/22 10:51:13;;;;;;;4.60;4.50;;;;;;;;;;5022330;28;20518;-79
2024/02/22 10:53:40;;;;;;;4.30;4.20;;;;;;;;;;5017950;28;20578;-80
2024/02/22 10:56:07;;;;;;;3.80;3.70;;;;;;;;;;5020247;28;20510;-80
2024/02/22 10:58:36;;;;;;;3.67;3.57;;;;;;;;;;5018149;28;20482;-80
2024/02/22 11:01:05;;;;;;;3.43;3.33;;;;;;;;;;5021028;28;20493;-80
2024/02/22 11:03:32;;;;;;;3.40;3.30;;;;;;;;;;5021000;28;20477;-80
2024/02/22 11:05:59;;;;;;;3.33;3.23;;;;;;;;;;5019040;28;20530;-79
2024/02/22 11:08:28;;;;;;;3.37;3.27;;;;;;;;;;5024273;28;20525;-80
2024/02/22 11:11:02;;;;;;;3.60;3.50;;;;;;;;;;5022660;28;20446;-79
2024/02/22 11:13:28;;;;;;;3.60;3.50;;;;;;;;;;5024837;28;20451;-80
2024/02/22 11:15:54;;;;;;;3.50;3.40;;;;;;;;;;5025066;28;20923;-80
2024/02/22 11:18:24;;;;;;;3.50;3.40;;;;;;;;;;5025158;28;20484;-80
2024/02/22 11:20:51;;;;;;;4.03;3.93;;;;;;;;;;5024748;28;20542;-80
2024/02/22 11:23:19;;;;;;;3.77;3.67;;;;;;;;;;5023824;28;20457;-79
2024/02/22 11:25:45;;;;;;;2.90;2.80;;;;;;;;;;5019439;28;20459;-80
2024/02/22 11:28:12;;;;;;;2.73;2.63;;;;;;;;;;5024068;28;21142;-79
2024/02/22 11:30:40;;;;;;;3.03;2.93;;;;;;;;;;5022353;28;20490;-80
2024/02/22 11:33:07;;;;;;;2.90;2.80;;;;;;;;;;5018379;28;20457;-79
2024/02/22 11:35:35;;;;;;;3.00;2.90;;;;;;;;;;5017620;28;20463;-79
2024/02/22 11:38:04;;;;;;;2.97;2.87;;;;;;;;;;5023822;28;20486;-79
2024/02/22 11:40:34;;;;;;;4.00;3.90;;;;;;;;;;5023008;28;20459;-79
2024/02/22 11:43:00;;;;;;;4.30;4.20;;;;;;;;;;5016280;28;20491;-80
2024/02/22 11:45:27;;;;;;;3.83;3.73;;;;;;;;;;5019172;28;20470;-80
2024/02/22 11:47:53;;;;;;;4.40;4.30;;;;;;;;;;5021943;28;20461;-80
2024/02/22 11:50:21;;;;;;;4.43;4.33;;;;;;;;;;5021557;28;20490;-79
2024/02/22 11:52:49;;;;;;;4.87;4.70;;;;;;;;;;5021835;28;20473;-81
2024/02/22 11:55:16;;;;;;;4.20;4.10;;;;;;;;;;5021667;28;20474;-78
2024/02/22 11:57:42;;;;;;;4.30;4.20;;;;;;;;;;5012805;28;20531;-78
2024/02/22 12:00:09;;;;;;;4.50;4.40;;;;;;;;;;5017379;28;20457;-78
2024/02/22 12:02:36;;;;;;;3.13;3.03;;;;;;;;;;5013526;28;20522;-79
2024/02/22 12:05:03;;;;;;;3.83;3.73;;;;;;;;;;5015469;28;20526;-76
2024/02/22 12:07:30;;;;;;;3.43;3.33;;;;;;;;;;5018885;28;20956;-78
2024/02/22 12:09:58;;;;;;;3.60;3.50;;;;;;;;;;5019079;28;20542;-79
2024/02/22 12:12:26;;;;;;;3.27;3.17;;;;;;;;;;5017888;28;20450;-82
2024/02/22 12:14:56;;;;;;;3.50;3.40;;;;;;;;;;5020005;28;20493;-79
2024/02/22 12:17:24;;;;;;;3.30;3.20;;;;;;;;;;5015611;28;20482;-80
2024/02/22 12:19:52;;;;;;;3.20;3.10;;;;;;;;;;5019072;28;20483;-80
2024/02/22 12:22:19;;;;;;;3.80;3.70;;;;;;;;;;5019962;28;20565;-79
2024/02/22 12:24:46;;;;;;;3.20;3.10;;;;;;;;;;5021010;28;20478;-79
2024/02/22 12:27:14;;;;;;;3.13;3.03;;;;;;;;;;5021660;28;20538;-80
2024/02/22 12:29:40;;;;;;;3.70;3.60;;;;;;;;;;5021534;28;20522;-80
2024/02/22 12:32:07;;;;;;;2.83;2.73;;;;;;;;;;5014117;28;20465;-80
2024/02/22 12:34:35;;;;;;;2.60;2.50;;;;;;;;;;5009448;28;20454;-80
2024/02/22 12:37:02;;;;;;;2.87;2.77;;;;;;;;;;5012933;28;20509;-79
2024/02/22 12:39:28;;;;;;;2.93;2.83;;;;;;;;;;5011959;28;20450;-79
2024/02/22 12:41:55;;;;;;;2.80;2.70;;;;;;;;;;5015896;28;20483;-82
2024/02/22 12:44:23;;;;;;;3.10;3.00;;;;;;;;;;5016032;28;20459;-79
2024/02/22 12:46:50;;;;;;;3.57;3.47;;;;;;;;;;5012931;28;20466;-79
2024/02/22 12:49:16;;;;;;;3.40;3.30;;;;;;;;;;5013248;28;20455;-79
2024/02/22 12:51:43;;;;;;;3.50;3.40;;;;;;;;;;5013665;28;20547;-81
2024/02/22 12:54:10;;;;;;;3.67;3.57;;;;;;;;;;5016447;28;20458;-80
2024/02/22 12:56:36;;;;;;;3.60;3.50;;;;;;;;;;5018317;28;20505;-80
2024/02/22 12:59:05;;;;;;;4.43;4.33;;;;;;;;;;5014839;28;20490;-78
2024/02/22 13:01:36;;;;;;;2.57;2.47;;;;;;;;;;5019290;28;20923;-78
2024/02/22 13:04:02;;;;;;;2.67;2.57;;;;;;;;;;5020742;28;20455;-80
2024/02/22 13:06:28;;;;;;;2.70;2.60;;;;;;;;;;5019389;28;20451;-80
2024/02/22 13:08:55;;;;;;;2.17;2.07;;;;;;;;;;5013398;28;20558;-81
2024/02/22 13:11:22;;;;;;;2.10;2.00;;;;;;;;;;5017077;28;20439;-79
2024/02/22 13:13:48;;;;;;;2.00;1.90;;;;;;;;;;5019844;28;20482;-82
2024/02/22 13:16:14;;;;;;;2.00;1.90;;;;;;;;;;5015652;28;20638;-83
2024/02/22 13:18:42;;;;;;;1.90;1.80;;;;;;;;;;5013859;28;21034;-82
2024/02/22 13:21:09;;;;;;;1.63;1.63;;;;;;;;;;5018482;28;20513;-79
2024/02/22 13:23:35;;;;;;;44.33;31.47;;;;;;;;;;5018286;28;20489;-81
2024/02/22 13:26:01;;;;;;;1.73;1.73;;;;;;;;;;5016032;28;20514;-79
2024/02/22 13:28:28;;;;;;;1.70;1.70;;;;;;;;;;5017217;28;20525;-79
2024/02/22 13:30:55;;;;;;;1.60;1.60;;;;;;;;;;5020270;28;20446;-79
2024/02/22 13:33:21;;;;;;;1.30;1.30;;;;;;;;;;5018515;28;20518;-80
2024/02/22 13:35:50;;;;;;;1.43;1.43;;;;;;;;;;5012953;28;20450;-80
2024/02/22 13:38:16;;;;;;;2.87;2.67;;;;;;;;;;5015096;28;20461;-80
2024/02/22 13:40:43;;;;;;;1.30;1.30;;;;;;;;;;5017984;28;20525;-80
2024/02/22 13:43:09;;;;;;;1.60;1.60;;;;;;;;;;5012696;28;20518;-81
2024/02/22 13:45:42;;;;;;;1.60;1.60;;;;;;;;;;5016684;28;20459;-79
2024/02/22 13:48:10;;;;;;;2.53;2.43;;;;;;;;;;5017660;28;20487;-80
2024/02/22 13:50:36;;;;;;;2.80;2.70;;;;;;;;;;5019537;28;20447;-81
2024/02/22 13:53:04;;;;;;;2.80;2.70;;;;;;;;;;5018110;28;20455;-80
2024/02/22 13:55:30;;;;;;;2.50;2.40;;;;;;;;;;5025446;28;20498;-80
2024/02/22 13:57:57;;;;;;;2.23;2.13;;;;;;;;;;5023893;28;21038;-81
2024/02/22 14:00:24;;;;;;;2.33;2.23;;;;;;;;;;5019893;28;20466;-80
2024/02/22 14:02:50;;;;;;;2.43;2.33;;;;;;;;;;5019108;28;20910;-80
2024/02/22 14:05:17;;;;;;;2.77;2.67;;;;;;;;;;5020372;28;21441;-81
2024/02/22 14:07:47;;;;;;;1.83;1.77;;;;;;;;;;5022054;28;20465;-81
2024/02/22 14:10:16;;;;;;;2.00;1.90;;;;;;;;;;5020741;28;20455;-80
2024/02/22 14:12:42;;;;;;;2.13;2.03;;;;;;;;;;5023395;28;20571;-81
2024/02/22 14:15:09;;;;;;;1.83;1.73;;;;;;;;;;5024249;28;21131;-82
2024/02/22 14:17:35;;;;;;;2.20;2.10;;;;;;;;;;5022331;28;20506;-83
2024/02/22 14:20:02;;;;;;;1.77;1.77;;;;;;;;;;5017880;28;20490;-81
2024/02/22 14:22:28;;;;;;;1.90;1.80;;;;;;;;;;5014300;28;20486;-81
2024/02/22 14:24:54;;;;;;;1.70;1.70;;;;;;;;;;5032126;28;20850;-81
2024/02/22 14:27:23;;;;;;;2.30;2.20;;;;;;;;;;5021310;28;20494;-78
2024/02/22 14:29:52;;;;;;;2.20;2.10;;;;;;;;;;5018478;28;20447;-81
2024/02/22 14:32:18;;;;;;;2.40;2.30;;;;;;;;;;5024919;28;20484;-82
2024/02/22 14:34:45;;;;;;;2.13;2.03;;;;;;;;;;5013112;28;20469;-80
2024/02/22 14:37:11;;;;;;;1.70;1.70;;;;;;;;;;5031161;28;20718;-81
2024/02/22 14:39:38;;;;;;;2.10;2.00;;;;;;;;;;5022713;28;20446;-78